Time;durP1;ratioP1;P1;durP2;ratioP2;P2;SDS_P1;SDS_P2;PMS_P1;PMS_P2;Temp;Humidity;BMP_temperature;BMP_pressure;BME280_temperature;BME280_humidity;BME280_pressure;Samples;Min_cycle;Max_cycle;Signal;HPM_P1;HPM_P2
2023/07/23 00:00:12;;;;;;;7.50;6.23;;;17.40;99.90;;;;;;4983926;28;20479;-74
2023/07/23 00:02:38;;;;;;;10.97;6.30;;;17.40;99.90;;;;;;4991219;28;20464;-74
2023/07/23 00:05:06;;;;;;;11.80;6.17;;;17.40;99.90;;;;;;4991429;28;20525;-74
2023/07/23 00:07:32;;;;;;;7.73;5.90;;;17.30;99.90;;;;;;4991091;28;20429;-74
2023/07/23 00:09:59;;;;;;;8.50;5.70;;;17.30;99.90;;;;;;4991262;28;20455;-74
2023/07/23 00:12:27;;;;;;;8.50;5.63;;;17.40;99.90;;;;;;4989863;28;20489;-74
2023/07/23 00:14:53;;;;;;;7.40;5.73;;;17.40;99.90;;;;;;4990730;28;20474;-74
2023/07/23 00:17:20;;;;;;;8.90;5.87;;;17.40;99.90;;;;;;4994855;28;20902;-74
2023/07/23 00:19:47;;;;;;;11.00;5.90;;;17.40;99.90;;;;;;4994722;28;20490;-74
2023/07/23 00:22:13;;;;;;;11.80;6.53;;;17.40;99.90;;;;;;4992740;28;20462;-74
2023/07/23 00:24:40;;;;;;;9.40;5.30;;;17.40;99.90;;;;;;4994055;28;20512;-74
2023/07/23 00:27:08;;;;;;;10.50;5.90;;;17.30;99.90;;;;;;4993740;28;21141;-74
2023/07/23 00:29:36;;;;;;;9.00;5.70;;;17.30;99.90;;;;;;4994684;28;20882;-74
2023/07/23 00:32:04;;;;;;;8.00;5.47;;;17.30;99.90;;;;;;5000436;28;20421;-74
2023/07/23 00:34:30;;;;;;;7.30;5.70;;;17.20;99.90;;;;;;4994644;28;20869;-74
2023/07/23 00:36:57;;;;;;;11.70;5.47;;;17.20;99.90;;;;;;4994539;28;20434;-74
2023/07/23 00:39:24;;;;;;;9.73;6.10;;;17.10;99.90;;;;;;4994390;28;20486;-74
2023/07/23 00:41:50;;;;;;;10.50;5.13;;;17.20;99.90;;;;;;4996112;28;20497;-74
2023/07/23 00:44:17;;;;;;;9.13;5.80;;;17.10;99.90;;;;;;4994253;28;20492;-74
2023/07/23 00:46:45;;;;;;;7.53;5.50;;;17.20;99.90;;;;;;4994077;28;20481;-74
2023/07/23 00:49:12;;;;;;;7.00;6.30;;;17.20;99.90;;;;;;4993731;28;20447;-74
2023/07/23 00:51:40;;;;;;;8.00;5.80;;;17.20;99.90;;;;;;4986848;28;20455;-74
2023/07/23 00:54:08;;;;;;;8.07;5.60;;;17.20;99.90;;;;;;4993777;28;20430;-74
2023/07/23 00:56:36;;;;;;;7.10;5.67;;;17.30;99.90;;;;;;4993230;28;20513;-74
2023/07/23 00:59:03;;;;;;;8.13;5.23;;;17.30;99.90;;;;;;4993961;28;20480;-74
2023/07/23 01:01:30;;;;;;;8.43;5.27;;;17.30;99.90;;;;;;4993261;28;20491;-74
2023/07/23 01:03:58;;;;;;;7.73;5.67;;;17.30;99.90;;;;;;4993882;28;20490;-74
2023/07/23 01:06:26;;;;;;;9.17;5.00;;;17.40;99.90;;;;;;4993847;28;21668;-74
2023/07/23 01:08:55;;;;;;;10.20;5.33;;;17.40;99.90;;;;;;4993141;28;20462;-74
2023/07/23 01:11:22;;;;;;;10.00;5.20;;;17.40;99.90;;;;;;4990742;28;20482;-74
2023/07/23 01:13:51;;;;;;;5.93;5.40;;;17.40;99.90;;;;;;4993344;28;20463;-74
2023/07/23 01:16:18;;;;;;;11.60;5.27;;;17.40;99.90;;;;;;4990305;28;20467;-74
2023/07/23 01:18:45;;;;;;;9.50;5.40;;;17.40;99.90;;;;;;4993800;28;20506;-74
2023/07/23 01:21:14;;;;;;;5.80;5.13;;;17.30;99.90;;;;;;4990576;28;20553;-74
2023/07/23 01:23:42;;;;;;;6.93;5.03;;;17.30;99.90;;;;;;4990180;28;20455;-74
2023/07/23 01:26:09;;;;;;;8.13;5.47;;;17.30;99.90;;;;;;4990689;28;20475;-74
2023/07/23 01:28:36;;;;;;;7.90;6.17;;;17.30;99.90;;;;;;4988708;28;20510;-74
2023/07/23 01:31:03;;;;;;;8.83;5.40;;;17.20;99.90;;;;;;4995537;28;20528;-74
2023/07/23 01:33:30;;;;;;;5.70;5.10;;;17.20;99.90;;;;;;4993389;28;20512;-74
2023/07/23 01:35:58;;;;;;;8.70;5.63;;;17.20;99.90;;;;;;4992184;28;20479;-74
2023/07/23 01:38:25;;;;;;;9.73;5.83;;;17.10;99.90;;;;;;4993622;28;20476;-74
2023/07/23 01:40:53;;;;;;;5.73;5.20;;;17.10;99.90;;;;;;4990028;28;21076;-74
2023/07/23 01:43:20;;;;;;;6.57;5.80;;;17.10;99.90;;;;;;4989652;28;20460;-74
2023/07/23 01:45:48;;;;;;;10.60;5.33;;;17.00;99.90;;;;;;4990070;28;20461;-74
2023/07/23 01:48:14;;;;;;;9.37;5.10;;;17.00;99.90;;;;;;4993217;28;20459;-74
2023/07/23 01:50:41;;;;;;;8.53;5.80;;;16.90;99.90;;;;;;4984911;28;20944;-74
2023/07/23 01:53:08;;;;;;;13.13;5.47;;;16.90;99.90;;;;;;4993622;28;20430;-74
2023/07/23 01:55:35;;;;;;;5.37;4.87;;;16.80;99.90;;;;;;4993275;28;20496;-74
2023/07/23 01:58:03;;;;;;;6.23;5.13;;;16.70;99.90;;;;;;4991467;28;20429;-74
2023/07/23 02:00:30;;;;;;;7.80;5.20;;;16.60;99.90;;;;;;4992356;28;21035;-74
2023/07/23 02:02:57;;;;;;;6.80;5.23;;;16.60;99.90;;;;;;4991758;28;20434;-74
2023/07/23 02:05:23;;;;;;;8.90;4.97;;;16.50;99.90;;;;;;4992966;28;20471;-74
2023/07/23 02:07:50;;;;;;;9.20;5.60;;;16.50;99.90;;;;;;4992959;28;20430;-74
2023/07/23 02:10:18;;;;;;;8.70;5.30;;;16.50;99.90;;;;;;4992465;28;21010;-74
2023/07/23 02:12:45;;;;;;;10.00;5.60;;;16.40;99.90;;;;;;4991868;28;20451;-74
2023/07/23 02:15:13;;;;;;;24.47;5.70;;;16.50;99.90;;;;;;4992821;28;20446;-74
2023/07/23 02:17:40;;;;;;;5.80;5.00;;;16.40;99.90;;;;;;4992680;28;20723;-74
2023/07/23 02:20:08;;;;;;;12.30;5.33;;;16.40;99.90;;;;;;4992462;28;20438;-74
2023/07/23 02:22:35;;;;;;;8.30;5.57;;;16.40;99.90;;;;;;4993059;28;20870;-74
2023/07/23 02:25:02;;;;;;;5.50;4.90;;;16.40;99.90;;;;;;4992316;28;20488;-74
2023/07/23 02:27:29;;;;;;;6.40;5.60;;;16.30;99.90;;;;;;4986743;28;20429;-74
2023/07/23 02:29:56;;;;;;;8.33;5.60;;;16.30;99.90;;;;;;4989147;28;20466;-74
2023/07/23 02:32:24;;;;;;;12.90;5.03;;;16.20;99.90;;;;;;4999511;28;20976;-74
2023/07/23 02:34:50;;;;;;;10.00;5.60;;;16.20;99.90;;;;;;4992123;28;20545;-74
2023/07/23 02:37:17;;;;;;;5.77;5.17;;;16.10;99.90;;;;;;4992180;28;20480;-74
2023/07/23 02:39:44;;;;;;;6.67;4.97;;;16.00;99.90;;;;;;4991238;28;20461;-74
2023/07/23 02:42:10;;;;;;;7.33;5.70;;;16.00;99.90;;;;;;4997097;28;20473;-74
2023/07/23 02:44:38;;;;;;;7.63;5.40;;;16.00;99.90;;;;;;4992290;28;20470;-74
2023/07/23 02:47:05;;;;;;;7.57;5.13;;;15.90;99.90;;;;;;4991947;28;20883;-73
2023/07/23 02:49:33;;;;;;;6.10;5.50;;;15.90;99.90;;;;;;4991839;28;20430;-74
2023/07/23 02:52:01;;;;;;;7.90;5.50;;;15.80;99.90;;;;;;4992211;28;20430;-74
2023/07/23 02:54:27;;;;;;;10.70;5.50;;;15.80;99.90;;;;;;4991836;28;20473;-74
2023/07/23 02:56:54;;;;;;;10.20;5.67;;;15.80;99.90;;;;;;4990154;28;20481;-74
2023/07/23 02:59:21;;;;;;;5.80;5.13;;;15.70;99.90;;;;;;4990880;28;20461;-74
2023/07/23 03:01:47;;;;;;;7.57;5.27;;;15.70;99.90;;;;;;4991606;28;20512;-74
2023/07/23 03:04:14;;;;;;;11.90;6.07;;;15.70;99.90;;;;;;4991348;28;20451;-74
2023/07/23 03:06:42;;;;;;;6.60;5.90;;;15.70;99.90;;;;;;4991601;28;20459;-74
2023/07/23 03:09:09;;;;;;;7.30;5.40;;;15.60;99.90;;;;;;4991240;28;20459;-74
2023/07/23 03:11:35;;;;;;;8.10;5.07;;;15.60;99.90;;;;;;4986131;28;20835;-74
2023/07/23 03:14:02;;;;;;;7.90;5.63;;;15.60;99.90;;;;;;4991305;28;20429;-74
2023/07/23 03:16:29;;;;;;;6.10;5.50;;;15.50;99.90;;;;;;4989285;28;20454;-74
2023/07/23 03:18:55;;;;;;;6.67;5.63;;;15.50;99.90;;;;;;4988459;28;20874;-74
2023/07/23 03:21:22;;;;;;;7.30;6.30;;;15.50;99.90;;;;;;4991131;28;20520;-74
2023/07/23 03:23:50;;;;;;;9.90;5.70;;;15.50;99.90;;;;;;4990790;28;20504;-74
2023/07/23 03:26:16;;;;;;;9.93;5.87;;;15.50;99.90;;;;;;4991301;28;20556;-74
2023/07/23 03:28:43;;;;;;;8.40;7.03;;;15.50;99.90;;;;;;4990955;28;20482;-74
2023/07/23 03:31:11;;;;;;;7.73;5.60;;;15.50;99.90;;;;;;4998450;28;20942;-73
2023/07/23 03:33:37;;;;;;;12.23;5.87;;;15.40;99.90;;;;;;4991353;28;20846;-74
2023/07/23 03:36:04;;;;;;;8.97;5.70;;;15.30;99.90;;;;;;4990660;28;20549;-74
2023/07/23 03:38:31;;;;;;;9.30;5.87;;;15.20;99.90;;;;;;4990856;28;20512;-74
2023/07/23 03:40:59;;;;;;;8.73;5.70;;;15.00;99.90;;;;;;4997183;28;20506;-74
2023/07/23 03:43:26;;;;;;;13.60;7.20;;;14.90;99.90;;;;;;4987475;28;20460;-74
2023/07/23 03:45:53;;;;;;;9.33;5.80;;;14.80;99.90;;;;;;4987573;28;21015;-74
2023/07/23 03:48:19;;;;;;;12.73;6.23;;;14.70;99.90;;;;;;4990221;28;20422;-74
2023/07/23 03:50:46;;;;;;;9.43;5.97;;;14.60;99.90;;;;;;4995055;28;20496;-74
2023/07/23 03:53:12;;;;;;;9.47;6.47;;;14.60;99.90;;;;;;4995098;28;20488;-74
2023/07/23 03:55:39;;;;;;;8.90;5.50;;;14.50;99.90;;;;;;4994745;28;20513;-74
2023/07/23 03:58:08;;;;;;;8.50;5.70;;;14.50;99.90;;;;;;4991622;28;20467;-74
2023/07/23 04:00:36;;;;;;;6.47;5.57;;;14.50;99.90;;;;;;4994755;28;20461;-74
2023/07/23 04:03:02;;;;;;;9.23;5.67;;;14.50;99.90;;;;;;4994729;28;20932;-74
2023/07/23 04:05:29;;;;;;;8.03;6.00;;;14.50;99.90;;;;;;4994857;28;20462;-74
2023/07/23 04:07:55;;;;;;;11.20;5.97;;;14.50;99.90;;;;;;4995317;28;20481;-74
2023/07/23 04:10:22;;;;;;;7.70;5.90;;;14.50;99.90;;;;;;4988384;28;20855;-74
2023/07/23 04:12:49;;;;;;;11.20;6.00;;;14.60;99.90;;;;;;4992265;28;20451;-74
2023/07/23 04:15:17;;;;;;;11.37;6.17;;;14.70;99.90;;;;;;4993284;28;20516;-74
2023/07/23 04:17:43;;;;;;;8.97;6.00;;;14.70;99.90;;;;;;4993292;28;20459;-74
2023/07/23 04:20:11;;;;;;;10.60;6.30;;;14.80;99.90;;;;;;4992811;28;20489;-74
2023/07/23 04:22:37;;;;;;;8.70;6.43;;;14.80;99.90;;;;;;4993161;28;20490;-74
2023/07/23 04:25:04;;;;;;;10.50;6.57;;;14.80;99.90;;;;;;4993379;28;20557;-74
2023/07/23 04:27:31;;;;;;;11.10;6.27;;;14.90;99.90;;;;;;4988284;28;20926;-74
2023/07/23 04:29:58;;;;;;;6.57;5.90;;;14.90;99.90;;;;;;4986511;28;20623;-74
2023/07/23 04:32:26;;;;;;;12.50;6.63;;;14.90;99.90;;;;;;4994340;28;20462;-74
2023/07/23 04:34:52;;;;;;;8.03;5.60;;;14.90;99.90;;;;;;4994471;28;20519;-74
2023/07/23 04:37:19;;;;;;;9.03;6.67;;;14.90;99.90;;;;;;4994041;28;20455;-74
2023/07/23 04:39:45;;;;;;;10.50;6.33;;;15.00;99.90;;;;;;4994327;28;20879;-74
2023/07/23 04:42:12;;;;;;;9.33;4.60;;;15.00;99.90;;;;;;5001101;28;20494;-69
2023/07/23 04:44:39;;;;;;;5.73;5.03;;;15.10;99.90;;;;;;4991940;28;20480;-71
2023/07/23 04:47:05;;;;;;;10.10;5.87;;;15.30;99.90;;;;;;4993726;28;20924;-70
2023/07/23 04:49:33;;;;;;;5.20;4.70;;;15.40;99.90;;;;;;4992731;28;20437;-70
2023/07/23 04:52:00;;;;;;;6.43;5.30;;;15.70;99.90;;;;;;4994003;28;20919;-70
2023/07/23 04:54:26;;;;;;;7.63;6.00;;;16.00;99.90;;;;;;4994125;28;20451;-69
2023/07/23 04:56:53;;;;;;;5.80;5.17;;;16.40;99.90;;;;;;4994036;28;20458;-70
2023/07/23 04:59:20;;;;;;;7.33;6.00;;;16.60;99.90;;;;;;4985280;28;20447;-70
2023/07/23 05:01:46;;;;;;;5.10;4.47;;;16.80;99.90;;;;;;4992180;28;20500;-70
2023/07/23 05:04:13;;;;;;;9.63;4.63;;;16.90;99.90;;;;;;4992438;28;20429;-70
2023/07/23 05:06:41;;;;;;;9.20;6.27;;;17.20;99.90;;;;;;4993213;28;20451;-70
2023/07/23 05:09:07;;;;;;;9.10;5.30;;;17.30;99.90;;;;;;4993641;28;20455;-70
2023/07/23 05:11:34;;;;;;;10.97;6.13;;;17.40;99.90;;;;;;4985454;28;20430;-70
2023/07/23 05:14:01;;;;;;;7.17;5.50;;;17.60;99.90;;;;;;4989595;28;20455;-70
2023/07/23 05:16:27;;;;;;;7.10;5.17;;;17.80;99.90;;;;;;4993308;28;20463;-70
2023/07/23 05:18:54;;;;;;;6.73;4.87;;;18.00;99.90;;;;;;4993497;28;21006;-70
2023/07/23 05:21:21;;;;;;;7.40;5.43;;;18.30;99.90;;;;;;4993365;28;20521;-70
2023/07/23 05:23:49;;;;;;;12.63;5.20;;;18.40;99.90;;;;;;4993716;28;20462;-69
2023/07/23 05:26:15;;;;;;;9.10;5.80;;;18.40;99.90;;;;;;4992387;28;20479;-69
2023/07/23 05:28:42;;;;;;;6.00;5.37;;;18.30;99.90;;;;;;4993157;28;20474;-69
2023/07/23 05:31:09;;;;;;;7.50;5.30;;;18.30;99.90;;;;;;4993673;28;20457;-69
2023/07/23 05:33:35;;;;;;;7.90;5.93;;;18.40;99.90;;;;;;4992075;28;20463;-69
2023/07/23 05:36:02;;;;;;;8.60;5.10;;;18.60;99.90;;;;;;4993342;28;20470;-69
2023/07/23 05:38:29;;;;;;;6.93;5.10;;;18.80;99.90;;;;;;4989813;28;20434;-69
2023/07/23 05:40:58;;;;;;;11.60;4.80;;;18.90;99.90;;;;;;4994548;28;20462;-69
2023/07/23 05:43:25;;;;;;;10.30;5.60;;;18.90;99.90;;;;;;4990024;28;20482;-69
2023/07/23 05:45:52;;;;;;;5.80;5.20;;;19.00;99.90;;;;;;4987671;28;20482;-68
2023/07/23 05:48:18;;;;;;;11.43;5.70;;;19.00;99.90;;;;;;4992701;28;20959;-69
2023/07/23 05:50:45;;;;;;;12.50;5.77;;;19.00;99.90;;;;;;4992377;28;20924;-69
2023/07/23 05:53:12;;;;;;;5.50;5.00;;;19.00;99.90;;;;;;4986280;28;20541;-69
2023/07/23 05:55:38;;;;;;;9.83;4.77;;;19.10;99.90;;;;;;4992180;28;20475;-69
2023/07/23 05:58:07;;;;;;;5.50;4.90;;;19.20;99.90;;;;;;4991722;28;20466;-69
2023/07/23 06:00:34;;;;;;;10.00;5.80;;;19.40;99.90;;;;;;4988715;28;20458;-69
2023/07/23 06:03:01;;;;;;;14.80;5.53;;;19.50;99.90;;;;;;4992805;28;20494;-68
2023/07/23 06:05:27;;;;;;;11.00;4.90;;;19.50;99.90;;;;;;4991130;28;20475;-69
2023/07/23 06:07:54;;;;;;;14.90;5.20;;;19.40;99.90;;;;;;4983989;28;20463;-69
2023/07/23 06:10:20;;;;;;;13.10;5.20;;;19.30;99.90;;;;;;4991528;28;20513;-69
2023/07/23 06:12:47;;;;;;;10.73;5.70;;;19.30;99.90;;;;;;4990022;28;21038;-69
2023/07/23 06:15:15;;;;;;;7.73;5.13;;;19.30;99.90;;;;;;4992082;28;20636;-69
2023/07/23 06:17:42;;;;;;;9.63;5.23;;;19.40;99.90;;;;;;4990469;28;20840;-69
2023/07/23 06:20:09;;;;;;;10.43;5.30;;;19.50;99.90;;;;;;4988412;28;20451;-69
2023/07/23 06:22:36;;;;;;;11.17;5.63;;;19.50;99.90;;;;;;4989169;28;20491;-71
2023/07/23 06:25:03;;;;;;;6.80;5.47;;;19.60;99.90;;;;;;4987310;28;21066;-69
2023/07/23 06:27:29;;;;;;;12.47;5.20;;;19.80;99.90;;;;;;4983283;28;20467;-69
2023/07/23 06:29:56;;;;;;;10.00;5.00;;;20.00;99.90;;;;;;4981343;28;20467;-69
2023/07/23 06:32:24;;;;;;;7.30;5.27;;;20.30;99.90;;;;;;4978947;28;20515;-69
2023/07/23 06:34:51;;;;;;;9.37;5.57;;;20.40;99.90;;;;;;4983997;28;20479;-70
2023/07/23 06:37:17;;;;;;;6.17;4.33;;;20.50;99.90;;;;;;4986047;28;21072;-69
2023/07/23 06:39:44;;;;;;;7.33;5.17;;;20.60;99.90;;;;;;4987017;28;20521;-69
2023/07/23 06:42:10;;;;;;;4.90;3.70;;;20.90;99.90;;;;;;4985684;28;20487;-67
2023/07/23 06:44:40;;;;;;;6.53;4.07;;;21.10;99.90;;;;;;4983726;28;20975;-67
2023/07/23 06:47:07;;;;;;;7.27;4.23;;;21.40;99.90;;;;;;4980808;28;20455;-66
2023/07/23 06:49:35;;;;;;;5.77;4.10;;;21.60;99.90;;;;;;4983590;28;20463;-66
2023/07/23 06:52:01;;;;;;;7.27;4.23;;;21.80;99.90;;;;;;4986982;28;20458;-66
2023/07/23 06:54:28;;;;;;;10.70;4.33;;;22.00;99.90;;;;;;4986915;28;20534;-66
2023/07/23 06:56:55;;;;;;;4.20;3.83;;;22.10;99.90;;;;;;4990763;28;20467;-67
2023/07/23 06:59:21;;;;;;;6.73;4.17;;;22.10;99.90;;;;;;4984589;28;20466;-67
2023/07/23 07:01:50;;;;;;;4.20;3.80;;;22.00;99.90;;;;;;4986713;28;20459;-67
2023/07/23 07:04:16;;;;;;;4.30;3.90;;;22.00;99.90;;;;;;4978852;28;20470;-66
2023/07/23 07:06:44;;;;;;;9.10;4.30;;;22.10;99.90;;;;;;4989598;28;20461;-66
2023/07/23 07:09:11;;;;;;;6.80;4.03;;;22.10;99.90;;;;;;4989577;28;20824;-66
2023/07/23 07:11:38;;;;;;;7.20;3.43;;;22.10;99.90;;;;;;4981030;28;20863;-67
2023/07/23 07:14:05;;;;;;;5.30;3.50;;;22.10;99.90;;;;;;4991027;28;20462;-67
2023/07/23 07:16:31;;;;;;;6.03;3.70;;;22.10;99.90;;;;;;4984320;28;20911;-66
2023/07/23 07:18:58;;;;;;;4.90;3.17;;;22.10;99.90;;;;;;4985540;28;20458;-66
2023/07/23 07:21:25;;;;;;;6.33;3.60;;;22.10;99.90;;;;;;4988187;28;20499;-66
2023/07/23 07:23:53;;;;;;;7.33;3.50;;;22.10;99.90;;;;;;4982512;28;20546;-66
2023/07/23 07:26:19;;;;;;;4.13;3.33;;;22.10;99.90;;;;;;4980431;28;20892;-66
2023/07/23 07:28:46;;;;;;;6.17;3.60;;;22.20;99.90;;;;;;4983253;28;20455;-66
2023/07/23 07:31:15;;;;;;;3.90;3.60;;;21.90;99.90;;;;;;4985344;28;20871;-66
2023/07/23 07:33:43;;;;;;;5.43;3.33;;;22.00;99.90;;;;;;4982487;28;20491;-66
2023/07/23 07:36:10;;;;;;;6.93;3.60;;;22.10;99.90;;;;;;4980317;28;20561;-67
2023/07/23 07:38:37;;;;;;;7.10;3.53;;;22.10;99.90;;;;;;4977639;28;20505;-67
2023/07/23 07:41:05;;;;;;;4.43;3.70;;;22.30;99.90;;;;;;4982460;28;20464;-66
2023/07/23 07:43:31;;;;;;;8.93;3.50;;;22.20;99.90;;;;;;4986139;28;20541;-66
2023/07/23 07:45:59;;;;;;;3.57;3.27;;;22.30;99.90;;;;;;4983625;28;20483;-66
2023/07/23 07:48:26;;;;;;;6.27;3.60;;;22.20;99.90;;;;;;4987749;28;20469;-67
2023/07/23 07:50:59;;;;;;;9.73;4.30;;;22.10;99.90;;;;;;4973695;28;20460;-66
2023/07/23 07:53:26;;;;;;;6.90;3.50;;;21.90;99.90;;;;;;4977511;28;20476;-67
2023/07/23 07:55:52;;;;;;;7.73;4.03;;;22.10;99.90;;;;;;4985481;28;20888;-66
2023/07/23 07:58:24;;;;;;;3.73;3.43;;;22.10;99.90;;;;;;4986767;28;20468;-66
2023/07/23 08:00:52;;;;;;;5.67;3.60;;;22.20;99.90;;;;;;4989139;28;20509;-67
2023/07/23 08:03:19;;;;;;;3.90;3.43;;;22.20;99.90;;;;;;4984586;28;20494;-66
2023/07/23 08:05:46;;;;;;;4.20;3.10;;;22.00;99.90;;;;;;4982232;28;20987;-66
2023/07/23 08:08:15;;;;;;;4.37;3.50;;;21.80;99.90;;;;;;4976513;28;20511;-67
2023/07/23 08:10:43;;;;;;;6.23;3.50;;;21.70;99.90;;;;;;4982480;28;20458;-67
2023/07/23 08:13:11;;;;;;;4.67;3.70;;;21.50;99.90;;;;;;4989711;28;20475;-65
2023/07/23 08:15:39;;;;;;;12.70;4.10;;;21.50;99.90;;;;;;4985991;28;20877;-66
2023/07/23 08:18:07;;;;;;;4.00;3.10;;;21.60;99.90;;;;;;4978390;28;20448;-67
2023/07/23 08:20:35;;;;;;;7.43;3.87;;;21.60;99.90;;;;;;4980936;28;20455;-66
2023/07/23 08:23:02;;;;;;;5.40;3.17;;;21.60;99.90;;;;;;4979512;28;20486;-66
2023/07/23 08:25:30;;;;;;;5.50;3.77;;;21.50;99.90;;;;;;4985591;28;20471;-65
2023/07/23 08:28:00;;;;;;;11.00;3.37;;;21.60;99.90;;;;;;4987314;28;20458;-66
2023/07/23 08:30:28;;;;;;;6.03;3.93;;;21.50;99.90;;;;;;4985756;28;20967;-65
2023/07/23 08:32:58;;;;;;;4.00;3.60;;;21.50;99.90;;;;;;4975191;28;20451;-66
2023/07/23 08:35:25;;;;;;;12.00;3.60;;;21.50;99.90;;;;;;4978818;28;20476;-66
2023/07/23 08:37:52;;;;;;;5.20;3.50;;;21.50;99.90;;;;;;4982321;28;20455;-65
2023/07/23 08:40:20;;;;;;;3.60;3.30;;;21.50;99.90;;;;;;4987008;28;20462;-66
2023/07/23 08:43:18;;;;;;;4.87;3.17;;;21.40;99.90;;;;;;4991360;28;20498;-69
2023/07/23 08:46:19;;;;;;;3.57;3.27;;;21.20;99.90;;;;;;4983570;28;20483;-67
2023/07/23 08:49:04;;;;;;;5.67;3.77;;;21.20;99.90;;;;;;4986056;28;20454;-67
2023/07/23 08:51:34;;;;;;;5.77;3.23;;;21.40;99.90;;;;;;4984714;28;20832;-66
2023/07/23 08:54:02;;;;;;;3.70;3.40;;;21.50;99.90;;;;;;4990072;28;20518;-65
2023/07/23 08:56:28;;;;;;;4.73;3.30;;;21.50;99.90;;;;;;4990268;28;20545;-67
2023/07/23 08:58:56;;;;;;;4.77;3.40;;;21.60;99.90;;;;;;4984648;28;20460;-66
2023/07/23 09:01:24;;;;;;;5.27;3.43;;;21.60;99.90;;;;;;4989976;28;20494;-65
2023/07/23 09:03:50;;;;;;;5.30;3.23;;;21.40;99.90;;;;;;4982853;28;21044;-67
2023/07/23 09:06:20;;;;;;;5.23;3.60;;;21.40;99.90;;;;;;4984037;28;20487;-67
2023/07/23 09:08:46;;;;;;;3.33;2.93;;;21.40;99.90;;;;;;4989196;28;21026;-68
2023/07/23 09:11:13;;;;;;;7.23;3.67;;;21.30;99.90;;;;;;4985760;28;20510;-66
2023/07/23 09:13:39;;;;;;;3.50;2.83;;;21.30;99.90;;;;;;4982584;28;20873;-67
2023/07/23 09:16:06;;;;;;;5.07;3.20;;;21.30;99.90;;;;;;4982339;28;20285;-70
2023/07/23 09:18:38;;;;;;;4.55;3.28;;;21.10;99.90;;;;;;4980486;28;20448;-72
2023/07/23 09:21:06;;;;;;;4.07;3.77;;;21.10;99.90;;;;;;4982847;28;20215;-72
2023/07/23 09:23:34;;;;;;;7.10;2.95;;;21.20;99.90;;;;;;4988604;28;21000;-70
2023/07/23 09:26:01;;;;;;;3.63;3.13;;;21.30;99.90;;;;;;4991440;28;20624;-72
2023/07/23 09:28:28;;;;;;;4.60;3.08;;;21.30;99.90;;;;;;4984887;28;21017;-73
2023/07/23 09:30:55;;;;;;;5.40;3.47;;;21.50;99.90;;;;;;4985324;28;20259;-73
2023/07/23 09:33:22;;;;;;;7.67;3.40;;;21.40;99.90;;;;;;4983322;28;20506;-72
2023/07/23 09:35:48;;;;;;;4.67;3.80;;;21.60;99.90;;;;;;4981385;28;20487;-73
2023/07/23 09:38:15;;;;;;;4.00;2.93;;;21.60;99.90;;;;;;4977750;28;20453;-70
2023/07/23 09:40:44;;;;;;;6.40;3.00;;;21.50;99.90;;;;;;4984870;28;20454;-72
2023/07/23 09:43:10;;;;;;;4.97;3.30;;;21.60;99.90;;;;;;4975842;28;20500;-73
2023/07/23 09:45:40;;;;;;;4.33;3.63;;;21.50;99.90;;;;;;4980349;28;20475;-72
2023/07/23 09:48:07;;;;;;;4.33;3.27;;;21.50;99.90;;;;;;4982330;28;20459;-71
2023/07/23 09:50:34;;;;;;;3.77;3.40;;;21.40;99.90;;;;;;4987801;28;21024;-73
2023/07/23 09:53:01;;;;;;;5.30;3.53;;;21.30;99.90;;;;;;4990924;28;20580;-72
2023/07/23 09:55:28;;;;;;;3.60;3.30;;;21.30;99.90;;;;;;4983783;28;20475;-72
2023/07/23 09:57:58;;;;;;;5.03;3.43;;;21.20;99.90;;;;;;4983317;28;20463;-72
2023/07/23 10:00:25;;;;;;;4.43;3.10;;;21.10;99.90;;;;;;4982338;28;20468;-73
2023/07/23 10:02:53;;;;;;;4.73;3.40;;;21.10;99.90;;;;;;4988501;28;20575;-72
2023/07/23 10:05:20;;;;;;;4.00;3.60;;;20.90;99.90;;;;;;4989267;28;20553;-73
2023/07/23 10:07:47;;;;;;;3.20;2.87;;;20.70;99.90;;;;;;4981618;28;20462;-71
2023/07/23 10:10:14;;;;;;;3.40;3.10;;;20.60;99.90;;;;;;4981907;28;20511;-73
2023/07/23 10:12:41;;;;;;;5.10;3.50;;;20.50;99.90;;;;;;4979785;28;20507;-73
2023/07/23 10:15:10;;;;;;;6.80;3.80;;;20.40;99.90;;;;;;4987041;28;20478;-73
2023/07/23 10:17:40;;;;;;;3.07;2.87;;;20.30;99.90;;;;;;4985788;28;20452;-73
2023/07/23 10:20:09;;;;;;;9.63;3.60;;;20.40;99.90;;;;;;4985715;28;20466;-75
2023/07/23 10:22:37;;;;;;;2.90;2.63;;;20.40;99.90;;;;;;4981224;28;20468;-74
2023/07/23 10:25:23;;;;;;;6.37;3.30;;;20.40;99.90;;;;;;4982477;28;20495;-71
2023/07/23 10:27:56;;;;;;;6.17;3.20;;;20.30;99.90;;;;;;4990151;28;20546;-71
2023/07/23 10:30:25;;;;;;;3.70;3.40;;;20.40;99.90;;;;;;4984136;28;20470;-72
2023/07/23 10:33:25;;;;;;;5.53;2.90;;;20.40;99.90;;;;;;4983873;28;20451;-71
2023/07/23 10:35:59;;;;;;;4.40;3.27;;;20.50;99.90;;;;;;4991818;28;20483;-72
2023/07/23 10:38:28;;;;;;;3.30;3.00;;;20.50;99.90;;;;;;4975615;28;20448;-71
2023/07/23 10:40:55;;;;;;;10.60;4.13;;;20.40;99.90;;;;;;4984748;28;20457;-70
2023/07/23 10:43:22;;;;;;;3.30;2.75;;;20.50;99.90;;;;;;4982077;28;21965;-70
2023/07/23 10:46:02;;;;;;;3.43;3.13;;;20.60;99.90;;;;;;4979654;28;20219;-71
2023/07/23 10:48:42;;;;;;;3.60;3.30;;;20.70;99.90;;;;;;4987847;28;20542;-71
2023/07/23 10:51:10;;;;;;;3.70;3.30;;;20.90;99.90;;;;;;4987497;28;20461;-72
2023/07/23 10:53:42;;;;;;;2.80;2.60;;;21.10;99.90;;;;;;4986957;28;20509;-71
2023/07/23 10:56:29;;;;;;;3.73;2.90;;;21.30;99.90;;;;;;4986558;28;21124;-73
2023/07/23 10:58:58;;;;;;;3.67;3.10;;;21.40;99.90;;;;;;4987345;28;20458;-71
2023/07/23 11:01:27;;;;;;;4.17;3.10;;;21.40;99.90;;;;;;4986916;28;21014;-71
2023/07/23 11:03:58;;;;;;;5.80;2.83;;;21.70;99.90;;;;;;4987338;28;20571;-69
2023/07/23 11:06:32;;;;;;;5.60;3.03;;;21.70;99.90;;;;;;4986654;28;20505;-69
2023/07/23 11:09:04;;;;;;;2.70;2.50;;;22.00;99.90;;;;;;4987634;28;20458;-70
2023/07/23 11:11:39;;;;;;;3.10;2.80;;;22.20;99.90;;;;;;4986322;28;20526;-69
2023/07/23 11:14:18;;;;;;;3.20;2.90;;;22.30;99.90;;;;;;4985854;28;20465;-71
2023/07/23 11:16:48;;;;;;;3.27;2.97;;;22.50;99.90;;;;;;4986375;28;20558;-70
2023/07/23 11:19:16;;;;;;;3.70;2.83;;;22.50;99.90;;;;;;4987259;28;20467;-71
2023/07/23 11:21:47;;;;;;;3.57;2.90;;;22.60;99.90;;;;;;4986566;28;20455;-69
2023/07/23 11:24:14;;;;;;;3.10;2.80;;;22.80;99.90;;;;;;4986991;28;20494;-70
2023/07/23 11:26:41;;;;;;;3.13;2.30;;;22.90;99.90;;;;;;4985464;28;20490;-70
2023/07/23 11:29:09;;;;;;;3.20;2.30;;;22.70;99.90;;;;;;4985135;28;20452;-70
2023/07/23 11:31:36;;;;;;;3.57;2.73;;;22.70;99.90;;;;;;4986735;28;20471;-68
2023/07/23 11:34:05;;;;;;;4.05;2.60;;;22.70;99.90;;;;;;4985574;28;20507;-69
2023/07/23 11:36:32;;;;;;;3.93;3.17;;;22.70;99.90;;;;;;4987428;28;20585;-69
2023/07/23 11:38:59;;;;;;;3.00;2.47;;;22.60;99.90;;;;;;4987714;28;21120;-69
2023/07/23 11:41:30;;;;;;;4.75;2.60;;;22.80;99.90;;;;;;4986907;28;20448;-69
2023/07/23 11:43:57;;;;;;;6.40;2.63;;;23.00;99.90;;;;;;4986324;28;20223;-68
2023/07/23 11:46:24;;;;;;;6.03;4.13;;;23.20;99.90;;;;;;4986373;28;20463;-71
2023/07/23 11:48:53;;;;;;;5.83;2.83;;;23.10;99.90;;;;;;4987493;28;20208;-69
2023/07/23 11:51:22;;;;;;;8.90;3.20;;;23.10;99.90;;;;;;4986587;28;20506;-69
2023/07/23 11:53:51;;;;;;;8.45;3.83;;;23.10;99.90;;;;;;4986397;28;20967;-69
2023/07/23 11:56:19;;;;;;;2.60;2.10;;;23.10;99.90;;;;;;4986055;28;20488;-70
2023/07/23 11:58:45;;;;;;;3.73;2.97;;;23.10;99.90;;;;;;4987463;28;20459;-70
2023/07/23 12:01:12;;;;;;;8.87;2.47;;;23.10;99.90;;;;;;4986944;28;20880;-69
2023/07/23 12:03:40;;;;;;;5.83;3.10;;;23.30;99.90;;;;;;4987063;28;21006;-68
2023/07/23 12:06:07;;;;;;;2.83;2.63;;;23.40;99.90;;;;;;4987376;28;21053;-68
2023/07/23 12:08:38;;;;;;;6.77;2.77;;;23.50;99.90;;;;;;4987199;28;20533;-68
2023/07/23 12:11:09;;;;;;;2.93;2.70;;;23.60;99.90;;;;;;4989127;28;20489;-68
2023/07/23 12:13:41;;;;;;;5.70;4.47;;;23.70;99.90;;;;;;4990917;28;20985;-67
2023/07/23 12:16:13;;;;;;;37.37;22.33;;;23.80;99.90;;;;;;4990366;28;20466;-67
2023/07/23 12:18:44;;;;;;;11.53;6.53;;;23.80;99.90;;;;;;4991635;28;20879;-68
2023/07/23 12:21:11;;;;;;;8.40;6.30;;;23.90;99.90;;;;;;4991238;28;20482;-68
2023/07/23 12:23:43;;;;;;;109.68;80.55;;;24.00;99.90;;;;;;4990057;28;20525;-67
2023/07/23 12:26:10;;;;;;;5.97;3.97;;;24.00;99.90;;;;;;4990850;28;20704;-68
2023/07/23 12:28:36;;;;;;;10.63;8.40;;;24.10;99.90;;;;;;4990674;28;20459;-69
2023/07/23 12:31:03;;;;;;;6.23;3.93;;;24.40;99.90;;;;;;4989292;28;20475;-69
2023/07/23 12:33:29;;;;;;;4.60;3.93;;;24.70;99.90;;;;;;4990655;28;20959;-71
2023/07/23 12:35:56;;;;;;;3.50;3.10;;;24.80;99.90;;;;;;4990872;28;20564;-68
2023/07/23 12:38:23;;;;;;;37.27;16.53;;;24.80;99.90;;;;;;4990716;28;20514;-70
2023/07/23 12:40:51;;;;;;;29.27;19.50;;;24.90;99.90;;;;;;4990855;28;20467;-68
2023/07/23 12:43:17;;;;;;;7.00;3.30;;;25.10;99.90;;;;;;4989245;28;20491;-67
2023/07/23 12:45:44;;;;;;;3.30;3.00;;;25.10;99.90;;;;;;4988547;28;20537;-67
2023/07/23 12:48:11;;;;;;;4.00;3.07;;;24.90;99.90;;;;;;4989005;28;20459;-68